Time;durP1;ratioP1;P1;durP2;ratioP2;P2;SDS_P1;SDS_P2;PMS_P1;PMS_P2;Temp;Humidity;BMP_temperature;BMP_pressure;BME280_temperature;BME280_humidity;BME280_pressure;Samples;Min_cycle;Max_cycle;Signal;HPM_P1;HPM_P2
2021/11/10 00:00:22;;;;;;;12.73;11.30;;;;;;;-1.95;100.00;98951.56;5079903;28;20610;-74
2021/11/10 00:02:50;;;;;;;13.77;12.43;;;;;;;-1.99;100.00;98960.38;5077716;28;20203;-72
2021/11/10 00:05:19;;;;;;;13.10;11.80;;;;;;;-2.02;100.00;98971.72;5077795;28;20202;-74
2021/11/10 00:07:47;;;;;;;12.60;11.23;;;;;;;-2.08;100.00;98965.03;5072238;28;20673;-72
2021/11/10 00:10:16;;;;;;;14.27;12.60;;;;;;;-2.10;100.00;98964.22;5075308;28;20761;-74
2021/11/10 00:12:49;;;;;;;16.10;11.67;;;;;;;-2.06;100.00;98981.41;5071768;28;20448;-73
2021/11/10 00:15:17;;;;;;;14.00;12.47;;;;;;;-2.12;100.00;98980.78;5063361;28;20605;-74
2021/11/10 00:17:46;;;;;;;13.90;11.17;;;;;;;-2.16;100.00;98972.25;5080701;28;20774;-72
2021/11/10 00:20:14;;;;;;;14.13;10.83;;;;;;;-2.16;100.00;98968.81;5081778;28;20603;-75
2021/11/10 00:22:42;;;;;;;15.50;11.70;;;;;;;-2.20;100.00;98973.28;5073329;28;20210;-75
2021/11/10 00:25:11;;;;;;;14.30;11.20;;;;;;;-2.20;100.00;98968.09;5074769;28;20724;-75
2021/11/10 00:27:39;;;;;;;12.47;11.13;;;;;;;-2.26;100.00;98974.38;5086595;28;20974;-75
2021/11/10 00:30:09;;;;;;;13.00;11.00;;;;;;;-2.28;100.00;98970.16;5041369;28;21391;-75
2021/11/10 00:32:38;;;;;;;14.03;11.00;;;;;;;-2.31;100.00;98958.09;5076882;28;20444;-74
2021/11/10 00:35:07;;;;;;;13.50;10.97;;;;;;;-2.32;100.00;98959.00;5083675;28;20875;-75
2021/11/10 00:37:35;;;;;;;12.07;10.77;;;;;;;-2.36;100.00;98965.22;5080719;28;20452;-74
2021/11/10 00:40:04;;;;;;;12.60;11.03;;;;;;;-2.21;100.00;98959.47;5070971;28;21337;-74
2021/11/10 00:42:32;;;;;;;13.40;11.83;;;;;;;-2.28;100.00;98958.00;5083571;28;20214;-75
2021/11/10 00:45:01;;;;;;;16.27;12.90;;;;;;;-2.33;100.00;98955.59;5048443;28;20677;-73
2021/11/10 00:47:30;;;;;;;16.67;13.43;;;;;;;-2.32;100.00;98966.81;5081835;28;20209;-75
2021/11/10 00:49:58;;;;;;;15.63;14.00;;;;;;;-2.40;100.00;98950.69;5080603;28;20221;-72
2021/11/10 00:52:26;;;;;;;22.23;14.90;;;;;;;-2.34;100.00;98960.81;5073490;28;20228;-74
2021/11/10 00:54:54;;;;;;;17.70;13.53;;;;;;;-2.41;100.00;98967.16;5067724;28;20487;-72
2021/11/10 00:57:26;;;;;;;17.40;13.20;;;;;;;-2.46;100.00;98967.34;5076886;28;20498;-75
2021/11/10 00:59:56;;;;;;;15.43;12.43;;;;;;;-2.49;100.00;98960.50;5057959;28;20854;-75
2021/11/10 01:02:25;;;;;;;14.17;12.47;;;;;;;-2.52;100.00;98955.44;5069239;28;20210;-77
2021/11/10 01:04:55;;;;;;;15.40;12.63;;;;;;;-2.49;100.00;98947.53;5078566;28;20208;-74
2021/11/10 01:07:26;;;;;;;13.80;12.37;;;;;;;-2.41;100.00;98951.59;5083982;28;20210;-76
2021/11/10 01:09:58;;;;;;;13.43;11.83;;;;;;;-2.36;100.00;98950.50;5065980;28;20241;-75
2021/11/10 01:12:26;;;;;;;18.23;12.60;;;;;;;-2.41;100.00;98954.19;5077559;28;20209;-77
2021/11/10 01:14:54;;;;;;;15.53;13.33;;;;;;;-2.51;100.00;98945.88;5080839;28;20228;-75
2021/11/10 01:17:22;;;;;;;13.37;12.07;;;;;;;-2.60;100.00;98941.91;5048842;28;20452;-76
2021/11/10 01:19:50;;;;;;;13.13;11.80;;;;;;;-2.59;100.00;98943.59;5044585;28;20471;-75
2021/11/10 01:22:20;;;;;;;15.17;13.10;;;;;;;-2.62;100.00;98939.38;5078406;28;20327;-75
2021/11/10 01:24:48;;;;;;;13.53;11.87;;;;;;;-2.65;100.00;98929.09;5081931;28;20201;-74
2021/11/10 01:27:17;;;;;;;11.97;10.27;;;;;;;-2.65;100.00;98944.66;5081956;28;20638;-76
2021/11/10 01:29:45;;;;;;;12.93;11.73;;;;;;;-2.67;100.00;98941.28;5085013;28;20836;-75
2021/11/10 01:32:13;;;;;;;12.73;11.40;;;;;;;-2.67;100.00;98928.31;5080177;28;20589;-75
2021/11/10 01:34:41;;;;;;;13.00;11.67;;;;;;;-2.66;100.00;98939.53;5051651;28;20488;-76
2021/11/10 01:37:09;;;;;;;13.90;10.80;;;;;;;-2.70;100.00;98944.00;5079623;28;20202;-73
2021/11/10 01:39:39;;;;;;;15.00;11.67;;;;;;;-2.76;100.00;98934.69;5083690;28;20216;-76
2021/11/10 01:42:07;;;;;;;11.47;10.27;;;;;;;-2.75;100.00;98932.94;5079885;28;20606;-74
2021/11/10 01:44:38;;;;;;;14.90;11.03;;;;;;;-2.74;100.00;98926.00;5078998;28;20452;-75
2021/11/10 01:47:10;;;;;;;11.70;10.40;;;;;;;-2.71;100.00;98925.88;5084697;28;20447;-73
2021/11/10 01:49:39;;;;;;;12.20;11.00;;;;;;;-2.74;100.00;98916.47;5083973;28;20440;-75
2021/11/10 01:52:09;;;;;;;12.03;10.83;;;;;;;-2.71;100.00;98916.34;5050496;28;20574;-74
2021/11/10 01:54:40;;;;;;;12.40;11.13;;;;;;;-2.72;100.00;98919.84;5088921;28;20482;-75
2021/11/10 01:57:09;;;;;;;12.40;11.20;;;;;;;-2.77;100.00;98916.59;5077743;28;20440;-74
2021/11/10 01:59:40;;;;;;;12.77;11.57;;;;;;;-2.74;100.00;98911.28;5075396;28;20202;-76
2021/11/10 02:02:09;;;;;;;12.67;11.47;;;;;;;-2.70;100.00;98912.00;5078232;28;20444;-73
2021/11/10 02:04:40;;;;;;;11.63;10.50;;;;;;;-2.68;100.00;98911.06;5079707;28;20431;-76
2021/11/10 02:07:08;;;;;;;12.90;11.07;;;;;;;-2.76;100.00;98905.31;5049919;28;20450;-72
2021/11/10 02:09:37;;;;;;;12.10;11.00;;;;;;;-2.73;100.00;98896.53;5080479;28;20906;-75
2021/11/10 02:12:06;;;;;;;13.27;10.27;;;;;;;-2.71;100.00;98903.38;5077964;28;20867;-72
2021/11/10 02:14:34;;;;;;;14.27;10.27;;;;;;;-2.75;100.00;98904.41;5078393;28;20447;-75
2021/11/10 02:17:03;;;;;;;11.17;10.03;;;;;;;-2.79;100.00;98908.03;5081847;28;20277;-72
2021/11/10 02:19:32;;;;;;;10.87;9.70;;;;;;;-2.78;100.00;98901.94;5086998;28;20982;-75
2021/11/10 02:22:02;;;;;;;11.43;9.67;;;;;;;-2.82;100.00;98897.75;5052985;28;20506;-72
2021/11/10 02:24:31;;;;;;;12.73;10.67;;;;;;;-2.82;100.00;98895.16;5080105;28;20217;-73
2021/11/10 02:27:00;;;;;;;11.00;9.97;;;;;;;-2.80;100.00;98894.19;5079453;28;20213;-75
2021/11/10 02:29:35;;;;;;;10.00;9.10;;;;;;;-2.88;100.00;98872.88;5075102;28;20693;-72
2021/11/10 02:32:10;;;;;;;11.67;10.43;;;;;;;-2.86;100.00;98867.63;5090497;28;20702;-76
2021/11/10 02:34:38;;;;;;;11.73;10.10;;;;;;;-2.83;100.00;98860.59;5076198;28;20447;-77
2021/11/10 02:37:08;;;;;;;11.73;10.43;;;;;;;-2.87;100.00;98865.94;5050441;28;20464;-76
2021/11/10 02:39:37;;;;;;;12.13;11.03;;;;;;;-2.89;100.00;98862.53;5075536;28;20851;-75
2021/11/10 02:42:07;;;;;;;11.03;10.07;;;;;;;-2.92;100.00;98866.94;5071086;28;20214;-73
2021/11/10 02:44:36;;;;;;;9.63;8.83;;;;;;;-2.94;100.00;98860.97;5081370;28;20205;-73
2021/11/10 02:47:05;;;;;;;14.43;11.40;;;;;;;-2.93;100.00;98872.22;5078429;28;20439;-73
2021/11/10 02:49:34;;;;;;;17.10;11.87;;;;;;;-2.88;100.00;98870.28;5082878;28;20456;-75
2021/11/10 02:52:06;;;;;;;11.40;10.27;;;;;;;-2.87;100.00;98866.78;5073296;28;20447;-73
2021/11/10 02:54:38;;;;;;;11.43;9.90;;;;;;;-2.85;100.00;98864.13;5067286;28;20598;-74
2021/11/10 02:57:08;;;;;;;12.83;10.80;;;;;;;-2.85;100.00;98867.56;5078421;28;20991;-73
2021/11/10 02:59:36;;;;;;;12.00;10.80;;;;;;;-2.86;100.00;98863.28;5076177;28;20800;-74
2021/11/10 03:02:06;;;;;;;12.40;11.10;;;;;;;-2.86;100.00;98862.44;5074527;28;20692;-72
2021/11/10 03:04:37;;;;;;;12.00;10.40;;;;;;;-2.85;100.00;98862.38;5080862;28;20206;-75
2021/11/10 03:07:05;;;;;;;10.37;9.37;;;;;;;-2.83;100.00;98862.34;5079236;28;20461;-73
2021/11/10 03:09:37;;;;;;;10.97;9.97;;;;;;;-2.78;100.00;98858.66;5053841;28;20548;-75
2021/11/10 03:12:07;;;;;;;9.57;8.67;;;;;;;-2.87;100.00;98855.56;5075078;28;20210;-73
2021/11/10 03:14:37;;;;;;;9.67;8.83;;;;;;;-2.91;100.00;98855.66;5072505;28;20966;-75
2021/11/10 03:17:07;;;;;;;10.47;9.37;;;;;;;-2.94;100.00;98847.19;5080144;28;20222;-73
2021/11/10 03:19:36;;;;;;;11.63;10.43;;;;;;;-2.89;100.00;98841.78;5072724;28;20689;-75
2021/11/10 03:22:06;;;;;;;10.30;9.30;;;;;;;-2.89;100.00;98846.97;5075048;28;20854;-73
2021/11/10 03:24:35;;;;;;;10.93;9.80;;;;;;;-2.85;100.00;98853.75;5050472;28;20433;-73
2021/11/10 03:27:05;;;;;;;11.93;9.87;;;;;;;-2.86;100.00;98847.72;5046436;28;20546;-75
2021/11/10 03:29:34;;;;;;;11.97;9.90;;;;;;;-2.92;100.00;98841.00;5079518;28;20452;-73
2021/11/10 03:32:03;;;;;;;11.13;9.73;;;;;;;-2.98;100.00;98854.22;5078323;28;20576;-75
2021/11/10 03:34:31;;;;;;;11.83;9.67;;;;;;;-3.01;100.00;98851.75;5066245;28;20214;-74
2021/11/10 03:36:59;;;;;;;12.40;9.60;;;;;;;-3.03;100.00;98856.13;5076042;28;20531;-73
2021/11/10 03:39:27;;;;;;;11.10;9.33;;;;;;;-3.04;100.00;98857.03;5074387;28;20450;-75
2021/11/10 03:41:56;;;;;;;12.07;9.50;;;;;;;-3.02;100.00;98852.63;5063500;28;20466;-73
2021/11/10 03:44:26;;;;;;;13.60;9.70;;;;;;;-3.00;100.00;98850.00;5047119;28;20475;-75
2021/11/10 03:46:54;;;;;;;10.70;9.70;;;;;;;-3.01;100.00;98854.34;5063117;28;20534;-73
2021/11/10 03:49:23;;;;;;;10.10;9.20;;;;;;;-3.02;100.00;98850.06;5056638;28;20482;-74
2021/11/10 03:51:51;;;;;;;12.20;9.70;;;;;;;-2.97;100.00;98858.50;5069278;28;20419;-74
2021/11/10 03:54:19;;;;;;;11.17;10.13;;;;;;;-2.95;100.00;98850.69;5076552;28;20932;-74
2021/11/10 03:56:47;;;;;;;11.37;10.27;;;;;;;-2.93;100.00;98847.09;5081112;28;20226;-72
2021/11/10 03:59:16;;;;;;;10.67;9.57;;;;;;;-2.87;100.00;98840.00;5052249;28;21587;-77
2021/11/10 04:01:45;;;;;;;10.10;9.27;;;;;;;-2.94;100.00;98845.41;5061558;28;20478;-72
2021/11/10 04:04:13;;;;;;;11.57;10.07;;;;;;;-2.91;100.00;98840.09;5058652;28;20549;-74
2021/11/10 04:06:42;;;;;;;9.60;8.70;;;;;;;-2.94;100.00;98845.41;5075101;28;20736;-73
2021/11/10 04:09:10;;;;;;;10.57;9.20;;;;;;;-3.00;100.00;98847.41;5083475;28;20453;-72
2021/11/10 04:11:37;;;;;;;11.10;9.40;;;;;;;-2.92;100.00;98838.41;5078855;28;20463;-72
2021/11/10 04:14:05;;;;;;;9.03;8.00;;;;;;;-2.92;100.00;98843.59;5049303;28;20870;-75
2021/11/10 04:16:34;;;;;;;8.27;7.57;;;;;;;-2.86;100.00;98831.31;5081829;28;20226;-73
2021/11/10 04:19:03;;;;;;;8.90;8.10;;;;;;;-2.86;100.00;98832.16;5068666;28;20448;-74
2021/11/10 04:21:32;;;;;;;10.20;9.20;;;;;;;-2.84;100.00;98830.34;5070164;28;20463;-72
2021/11/10 04:24:00;;;;;;;11.83;8.40;;;;;;;-2.88;100.00;98833.97;5074726;28;20677;-74
2021/11/10 04:26:36;;;;;;;9.47;8.53;;;;;;;-2.92;100.00;98829.81;5076979;28;20441;-77
2021/11/10 04:29:04;;;;;;;7.90;7.07;;;;;;;-2.92;100.00;98830.63;5076516;28;20338;-74
2021/11/10 04:31:32;;;;;;;9.80;8.80;;;;;;;-2.96;100.00;98834.25;5051006;28;20480;-72
2021/11/10 04:34:05;;;;;;;9.10;7.87;;;;;;;-2.98;100.00;98841.25;5065186;28;20210;-74
2021/11/10 04:36:34;;;;;;;8.27;7.27;;;;;;;-3.03;100.00;98840.56;5068951;28;20505;-72
2021/11/10 04:39:02;;;;;;;8.40;7.70;;;;;;;-3.07;100.00;98839.84;5077459;28;20430;-75
2021/11/10 04:41:30;;;;;;;10.20;8.27;;;;;;;-3.09;100.00;98838.22;5082010;28;20257;-75
2021/11/10 04:43:58;;;;;;;9.70;8.73;;;;;;;-3.09;100.00;98833.88;5076171;28;20214;-76
2021/11/10 04:46:29;;;;;;;15.00;8.60;;;;;;;-3.11;100.00;98842.63;5052531;28;20447;-76
2021/11/10 04:48:57;;;;;;;9.87;8.87;;;;;;;-3.13;100.00;98842.66;5067558;28;20263;-73
2021/11/10 04:51:29;;;;;;;7.90;7.17;;;;;;;-3.15;100.00;98841.88;5086074;28;20221;-75
2021/11/10 04:53:58;;;;;;;10.30;7.70;;;;;;;-3.16;100.00;98844.53;5059718;28;20763;-74
2021/11/10 04:56:29;;;;;;;9.80;7.63;;;;;;;-3.17;100.00;98840.25;5079088;28;21270;-76
2021/11/10 04:59:00;;;;;;;8.10;7.37;;;;;;;-3.15;100.00;98846.22;5080855;28;20707;-74
2021/11/10 05:01:28;;;;;;;8.33;7.50;;;;;;;-3.14;100.00;98843.56;5058574;28;20232;-75
2021/11/10 05:03:57;;;;;;;9.47;7.50;;;;;;;-3.17;100.00;98838.50;5074195;28;20447;-74
2021/11/10 05:06:26;;;;;;;8.03;7.23;;;;;;;-3.20;100.00;98836.88;5080712;28;20452;-75
2021/11/10 05:08:55;;;;;;;8.37;7.57;;;;;;;-3.18;100.00;98830.78;5065613;28;20444;-74
2021/11/10 05:11:23;;;;;;;9.73;8.83;;;;;;;-3.22;100.00;98832.63;5084336;28;20225;-76
2021/11/10 05:13:52;;;;;;;9.80;7.90;;;;;;;-3.01;100.00;98828.41;5083377;28;20820;-76
2021/11/10 05:16:20;;;;;;;9.73;8.37;;;;;;;-2.96;100.00;98831.66;5054169;28;20828;-76
2021/11/10 05:18:48;;;;;;;9.33;8.17;;;;;;;-2.94;100.00;98837.63;5070520;28;21017;-76
2021/11/10 05:21:21;;;;;;;8.77;7.90;;;;;;;-2.95;100.00;98835.13;5088389;28;20464;-74
2021/11/10 05:23:49;;;;;;;9.20;7.77;;;;;;;-2.73;100.00;98829.94;5069850;28;20674;-72
2021/11/10 05:26:21;;;;;;;9.13;8.17;;;;;;;-2.87;100.00;98821.81;5086019;28;20467;-74
2021/11/10 05:28:49;;;;;;;9.40;8.57;;;;;;;-2.69;100.00;98831.50;5080739;28;20208;-71
2021/11/10 05:31:17;;;;;;;9.77;8.70;;;;;;;-2.70;100.00;98831.56;5080581;28;20464;-74
2021/11/10 05:33:45;;;;;;;8.43;7.63;;;;;;;-2.82;100.00;98838.91;5038656;28;20448;-74
2021/11/10 05:36:23;;;;;;;8.23;7.50;;;;;;;-2.87;100.00;98834.78;5069376;28;21076;-74
2021/11/10 05:39:03;;;;;;;8.40;7.57;;;;;;;-2.97;100.00;98840.34;5075747;28;20237;-73
2021/11/10 05:41:44;;;;;;;9.07;8.17;;;;;;;-2.97;100.00;98842.94;5076960;28;20933;-74
2021/11/10 05:44:12;;;;;;;9.03;8.23;;;;;;;-2.94;100.00;98847.19;5079330;28;20273;-74
2021/11/10 05:46:41;;;;;;;7.80;6.70;;;;;;;-2.94;100.00;98847.19;5086314;28;20440;-76
2021/11/10 05:49:09;;;;;;;8.37;7.67;;;;;;;-2.97;100.00;98848.13;5049178;28;21218;-74
2021/11/10 05:51:43;;;;;;;8.43;7.53;;;;;;;-2.99;100.00;98852.53;5085572;28;20305;-76
2021/11/10 05:54:12;;;;;;;7.77;7.00;;;;;;;-3.03;100.00;98850.09;5064114;28;20429;-75
2021/11/10 05:56:43;;;;;;;9.10;8.20;;;;;;;-3.08;100.00;98850.28;5087383;28;20505;-76
2021/11/10 05:59:11;;;;;;;8.03;7.27;;;;;;;-3.12;100.00;98846.94;5074117;28;20220;-76
2021/11/10 06:01:39;;;;;;;9.60;7.20;;;;;;;-3.17;100.00;98840.25;5079940;28;20641;-76
2021/11/10 06:04:09;;;;;;;8.67;7.43;;;;;;;-3.08;100.00;98840.75;5072928;28;20566;-75
2021/11/10 06:06:37;;;;;;;8.13;7.33;;;;;;;-3.13;100.00;98847.03;5053726;28;20982;-74
2021/11/10 06:09:06;;;;;;;7.10;6.50;;;;;;;-3.17;100.00;98843.69;5071955;28;20442;-75
2021/11/10 06:11:34;;;;;;;8.73;7.80;;;;;;;-3.17;100.00;98854.06;5079102;28;20977;-75
2021/11/10 06:14:03;;;;;;;8.60;7.10;;;;;;;-3.20;100.00;98855.03;5081554;28;20460;-74
2021/11/10 06:16:31;;;;;;;8.37;7.50;;;;;;;-3.21;100.00;98852.47;5087500;28;20216;-77
2021/11/10 06:18:59;;;;;;;9.23;8.33;;;;;;;-3.24;100.00;98848.22;5083139;28;20448;-73
2021/11/10 06:21:27;;;;;;;8.50;7.67;;;;;;;-3.21;100.00;98858.53;5058158;28;20759;-75
2021/11/10 06:23:55;;;;;;;8.27;7.47;;;;;;;-3.22;100.00;98851.66;5080440;28;20821;-74
2021/11/10 06:26:24;;;;;;;9.10;8.03;;;;;;;-3.23;100.00;98849.09;5074567;28;20202;-76
2021/11/10 06:28:52;;;;;;;7.93;7.23;;;;;;;-3.20;100.00;98855.03;5085636;28;20444;-74
2021/11/10 06:31:21;;;;;;;8.73;7.27;;;;;;;-3.19;100.00;98861.03;5081479;28;20296;-75
2021/11/10 06:33:50;;;;;;;8.33;7.50;;;;;;;-3.17;100.00;98859.25;5079014;28;20445;-74
2021/11/10 06:36:18;;;;;;;7.53;6.83;;;;;;;-3.16;100.00;98857.50;5080144;28;20889;-75
2021/11/10 06:38:46;;;;;;;8.10;7.20;;;;;;;-3.12;100.00;98852.13;5049366;28;20495;-76
2021/11/10 06:41:18;;;;;;;7.77;6.90;;;;;;;-3.11;100.00;98858.19;5071841;28;20245;-76
2021/11/10 06:43:47;;;;;;;6.87;6.20;;;;;;;-3.10;100.00;98863.28;5083836;28;20329;-73
2021/11/10 06:46:15;;;;;;;9.13;8.03;;;;;;;-3.08;100.00;98873.63;5082802;28;20232;-76
2021/11/10 06:48:45;;;;;;;9.17;8.40;;;;;;;-3.02;100.00;98873.41;5081619;28;20439;-76
2021/11/10 06:51:14;;;;;;;7.83;7.07;;;;;;;-3.00;100.00;98874.19;5079428;28;20606;-75
2021/11/10 06:53:43;;;;;;;10.17;9.17;;;;;;;-2.87;100.00;98865.94;5060213;28;20213;-76
2021/11/10 06:56:12;;;;;;;12.67;9.07;;;;;;;-2.83;100.00;98870.97;5071480;28;20448;-75
2021/11/10 06:58:41;;;;;;;8.87;7.97;;;;;;;-2.84;100.00;98871.84;5081461;28;20313;-74
2021/11/10 07:01:09;;;;;;;8.90;8.00;;;;;;;-2.83;100.00;98881.34;5079640;28;20435;-74
2021/11/10 07:03:37;;;;;;;9.87;8.40;;;;;;;-2.80;100.00;98886.41;5086091;28;20201;-74
2021/11/10 07:06:07;;;;;;;9.40;7.83;;;;;;;-2.71;100.00;98882.63;5075872;28;20447;-72
2021/11/10 07:08:37;;;;;;;8.53;7.60;;;;;;;-2.66;100.00;98891.06;5050366;28;20459;-75
2021/11/10 07:11:06;;;;;;;9.47;8.50;;;;;;;-2.63;100.00;98880.56;5069989;28;20238;-74
2021/11/10 07:13:34;;;;;;;15.27;13.90;;;;;;;-2.55;100.00;98889.81;5078287;28;20446;-75
2021/11/10 07:16:03;;;;;;;12.40;11.07;;;;;;;-2.50;100.00;98890.47;5081861;28;20206;-72
2021/11/10 07:18:31;;;;;;;10.20;9.10;;;;;;;-2.42;100.00;98891.03;5083646;28;20499;-73
2021/11/10 07:20:59;;;;;;;10.23;9.23;;;;;;;-2.31;100.00;98885.41;5080848;28;20248;-73
2021/11/10 07:23:29;;;;;;;10.43;9.10;;;;;;;-2.30;100.00;98897.47;5055412;28;20218;-74
2021/11/10 07:25:57;;;;;;;10.97;9.70;;;;;;;-2.24;100.00;98899.00;5081440;28;20217;-73
2021/11/10 07:28:25;;;;;;;10.80;9.80;;;;;;;-2.16;100.00;98893.50;5073889;28;20471;-74
2021/11/10 07:30:53;;;;;;;11.77;9.13;;;;;;;-2.08;100.00;98894.03;5076205;28;20225;-73
2021/11/10 07:33:21;;;;;;;9.43;8.53;;;;;;;-2.01;100.00;98897.25;5084742;28;20289;-76
2021/11/10 07:35:49;;;;;;;9.27;8.37;;;;;;;-1.79;100.00;98884.22;5085402;28;20209;-73
2021/11/10 07:38:24;;;;;;;8.03;7.33;;;;;;;-1.69;100.00;98885.50;5053802;28;21206;-74
2021/11/10 07:40:54;;;;;;;9.77;7.63;;;;;;;-1.62;100.00;98870.50;5051574;28;20255;-76
2021/11/10 07:43:27;;;;;;;9.33;8.33;;;;;;;-1.51;100.00;98873.47;5076462;28;20502;-75
2021/11/10 07:46:01;;;;;;;8.63;7.73;;;;;;;-1.38;100.00;98875.53;5077466;28;20213;-75
2021/11/10 07:48:29;;;;;;;9.30;8.27;;;;;;;-1.34;100.00;98882.28;5074990;28;20376;-75
2021/11/10 07:50:58;;;;;;;8.43;7.63;;;;;;;-1.17;100.00;98884.16;5076365;28;20515;-74
2021/11/10 07:53:26;;;;;;;8.27;7.43;;;;;;;-1.12;100.00;98877.03;5066391;28;20216;-75
2021/11/10 07:55:55;;;;;;;9.13;7.73;;;;;;;-1.14;100.00;98880.59;5055432;28;20218;-74
2021/11/10 07:58:23;;;;;;;8.57;7.70;;;;;;;-1.01;100.00;98876.50;5077218;28;20446;-74
2021/11/10 08:00:52;;;;;;;8.03;7.33;;;;;;;-0.86;100.00;98874.97;5077880;28;20260;-74
2021/11/10 08:03:20;;;;;;;8.63;6.90;;;;;;;-0.84;100.00;98869.72;5077528;28;20202;-74
2021/11/10 08:05:48;;;;;;;8.23;7.50;;;;;;;-0.57;100.00;98870.19;5080266;28;20836;-75
2021/11/10 08:08:17;;;;;;;10.27;7.83;;;;;;;-0.49;100.00;98873.28;5072016;28;20275;-72
2021/11/10 08:10:53;;;;;;;6.83;6.23;;;;;;;-0.37;100.00;98866.66;5050717;28;20413;-72
2021/11/10 08:13:23;;;;;;;9.10;7.17;;;;;;;-0.18;100.00;98870.97;5071569;28;20327;-74
2021/11/10 08:15:52;;;;;;;10.40;7.50;;;;;;;-0.41;100.00;98874.66;5084252;28;20209;-74
2021/11/10 08:18:20;;;;;;;10.23;8.03;;;;;;;-0.33;100.00;98873.41;5077683;28;20222;-73
2021/11/10 08:20:48;;;;;;;10.93;9.07;;;;;;;0.05;100.00;98876.81;5086806;28;20224;-74
2021/11/10 08:23:20;;;;;;;10.33;8.87;;;;;;;-0.17;100.00;98877.88;5069651;28;20700;-72
2021/11/10 08:25:49;;;;;;;9.57;8.63;;;;;;;0.01;100.00;98878.75;5075832;28;20198;-74
2021/11/10 08:28:18;;;;;;;8.27;7.47;;;;;;;-0.11;100.00;98876.72;5049907;28;20213;-72
2021/11/10 08:30:48;;;;;;;9.63;8.63;;;;;;;-0.12;100.00;98872.44;5084181;28;20240;-74
2021/11/10 08:33:16;;;;;;;8.00;7.10;;;;;;;0.07;100.00;98875.84;5074106;28;20210;-72
2021/11/10 08:35:48;;;;;;;9.80;7.27;;;;;;;0.06;100.00;98873.28;5079839;28;20695;-74
2021/11/10 08:38:16;;;;;;;7.60;6.83;;;;;;;0.16;100.00;98877.13;5066105;28;20229;-73
2021/11/10 08:40:45;;;;;;;7.70;7.00;;;;;;;0.30;100.00;98875.59;5080312;28;20229;-74
2021/11/10 08:43:14;;;;;;;7.33;6.63;;;;;;;0.33;100.00;98878.06;5055861;28;20602;-72
2021/11/10 08:45:44;;;;;;;7.07;6.47;;;;;;;0.49;100.00;98872.91;5075563;28;20217;-74
2021/11/10 08:48:14;;;;;;;7.60;7.00;;;;;;;0.70;100.00;98865.75;5077016;28;20197;-72
2021/11/10 08:50:43;;;;;;;10.43;7.33;;;;;;;0.76;100.00;98870.63;5085815;28;20240;-74
2021/11/10 08:53:14;;;;;;;9.67;6.93;;;;;;;0.87;100.00;98867.47;5067529;28;20233;-72
2021/11/10 08:55:42;;;;;;;7.47;6.87;;;;;;;0.98;100.00;98865.13;5077349;28;20736;-74
2021/11/10 08:58:11;;;;;;;8.47;6.67;;;;;;;1.07;100.00;98860.31;5053537;28;20209;-73
2021/11/10 09:00:39;;;;;;;8.47;7.33;;;;;;;1.34;100.00;98865.84;5084747;28;20218;-75
2021/11/10 09:03:07;;;;;;;8.53;6.73;;;;;;;1.47;100.00;98868.59;5077029;28;20569;-72
2021/11/10 09:05:37;;;;;;;8.17;7.37;;;;;;;1.54;100.00;98869.13;5071968;28;20202;-74
2021/11/10 09:08:05;;;;;;;8.20;7.50;;;;;;;1.70;100.00;98867.31;5075588;28;20211;-73
2021/11/10 09:10:35;;;;;;;7.63;6.83;;;;;;;1.87;100.00;98862.91;5074662;28;20318;-74
2021/11/10 09:13:04;;;;;;;9.37;7.27;;;;;;;1.91;100.00;98861.00;5068427;28;20209;-73
2021/11/10 09:15:33;;;;;;;7.00;6.37;;;;;;;2.00;100.00;98858.66;5067317;28;20210;-74
2021/11/10 09:18:02;;;;;;;8.47;7.67;;;;;;;2.09;100.00;98843.41;5078279;28;20503;-72
2021/11/10 09:20:32;;;;;;;7.57;6.97;;;;;;;2.21;100.00;98847.03;5074254;28;20858;-74
2021/11/10 09:23:04;;;;;;;7.90;7.20;;;;;;;2.28;100.00;98854.44;5085093;28;20197;-72
2021/11/10 09:25:33;;;;;;;7.63;6.90;;;;;;;2.48;100.00;98856.81;5072411;28;20610;-74
2021/11/10 09:28:07;;;;;;;7.30;6.47;;;;;;;2.65;100.00;98853.19;5079707;28;20258;-73
2021/11/10 09:30:38;;;;;;;7.93;7.23;;;;;;;2.62;100.00;98854.22;5052364;28;20401;-74
2021/11/10 09:33:08;;;;;;;6.90;6.30;;;;;;;2.75;100.00;98864.78;5082645;28;20449;-72
2021/11/10 09:35:36;;;;;;;7.67;6.77;;;;;;;2.75;100.00;98860.41;5086201;28;20194;-74
2021/11/10 09:38:06;;;;;;;7.93;6.97;;;;;;;2.88;100.00;98868.38;5079634;28;20214;-72
2021/11/10 09:40:37;;;;;;;8.20;7.40;;;;;;;3.03;100.00;98852.63;5069617;28;20229;-74
2021/11/10 09:43:06;;;;;;;7.87;7.17;;;;;;;3.11;100.00;98844.31;5079750;28;20243;-73
2021/11/10 09:45:35;;;;;;;9.13;7.50;;;;;;;3.24;100.00;98855.69;5050064;28;20969;-74
2021/11/10 09:48:05;;;;;;;9.27;7.33;;;;;;;3.42;100.00;98848.44;5053065;28;20206;-75
2021/11/10 09:50:35;;;;;;;7.80;7.07;;;;;;;3.60;100.00;98845.63;5073811;28;20567;-72
2021/11/10 09:53:05;;;;;;;8.53;7.70;;;;;;;3.72;100.00;98839.56;5076081;28;20613;-74
2021/11/10 09:55:33;;;;;;;8.40;7.60;;;;;;;3.76;100.00;98833.19;5071925;28;20206;-73
2021/11/10 09:58:01;;;;;;;8.50;7.47;;;;;;;3.93;100.00;98836.47;5080891;28;20199;-75
2021/11/10 10:00:32;;;;;;;8.17;7.40;;;;;;;4.00;100.00;98836.91;5080869;28;20230;-73
2021/11/10 10:03:01;;;;;;;8.97;8.17;;;;;;;4.10;100.00;98842.41;5080563;28;20198;-74
2021/11/10 10:05:30;;;;;;;9.30;8.50;;;;;;;3.93;100.00;98846.94;5061504;28;20272;-72
2021/11/10 10:07:58;;;;;;;9.60;7.40;;;;;;;3.97;100.00;98843.19;5086843;28;20229;-73
2021/11/10 10:10:28;;;;;;;8.50;7.63;;;;;;;3.87;100.00;98844.75;5076855;28;20220;-73
2021/11/10 10:12:59;;;;;;;10.53;8.57;;;;;;;3.80;100.00;98844.31;5082176;28;20200;-75
2021/11/10 10:15:29;;;;;;;8.90;8.07;;;;;;;3.92;100.00;98850.53;5079745;28;20207;-73
2021/11/10 10:18:00;;;;;;;8.20;7.50;;;;;;;4.05;100.00;98840.91;5084682;28;20284;-74
2021/11/10 10:20:31;;;;;;;10.13;8.40;;;;;;;4.11;100.00;98834.41;5052934;28;20487;-73
2021/11/10 10:23:02;;;;;;;9.00;8.17;;;;;;;4.38;100.00;98840.56;5077660;28;20210;-72
2021/11/10 10:25:41;;;;;;;9.63;8.63;;;;;;;4.55;100.00;98852.53;5074051;28;20198;-73
2021/11/10 10:28:11;;;;;;;10.20;9.17;;;;;;;4.63;100.00;98855.47;5076458;28;20213;-75
2021/11/10 10:30:42;;;;;;;9.17;8.23;;;;;;;4.90;100.00;98855.34;5086312;28;20218;-75
2021/11/10 10:33:12;;;;;;;8.70;7.80;;;;;;;4.90;100.00;98850.09;5088607;28;20197;-75
2021/11/10 10:35:44;;;;;;;8.97;8.07;;;;;;;5.02;100.00;98845.78;5048312;28;20250;-75
2021/11/10 10:38:14;;;;;;;9.60;8.70;;;;;;;5.26;100.00;98841.53;5081758;28;20206;-75
2021/11/10 10:40:45;;;;;;;8.60;7.80;;;;;;;5.29;100.00;98828.97;5081308;28;20237;-74
2021/11/10 10:43:14;;;;;;;9.07;8.17;;;;;;;5.31;100.00;98834.16;5080825;28;20206;-75
2021/11/10 10:45:44;;;;;;;9.53;8.60;;;;;;;5.45;100.00;98833.16;5076907;28;20402;-76
2021/11/10 10:48:15;;;;;;;9.73;8.80;;;;;;;5.73;100.00;98831.16;5080780;28;20199;-72
2021/11/10 10:50:47;;;;;;;8.80;7.97;;;;;;;5.78;100.00;98835.09;5058986;28;20455;-75
2021/11/10 10:53:16;;;;;;;8.20;7.50;;;;;;;5.79;100.00;98830.69;5079963;28;20201;-74
2021/11/10 10:55:48;;;;;;;10.40;8.60;;;;;;;5.91;100.00;98823.69;5077549;28;20199;-73
2021/11/10 10:58:34;;;;;;;9.77;8.87;;;;;;;6.07;100.00;98815.53;5078121;28;20621;-72
2021/11/10 11:01:18;;;;;;;9.83;8.83;;;;;;;6.11;100.00;98810.88;5079672;28;20233;-73
2021/11/10 11:03:50;;;;;;;11.57;8.90;;;;;;;6.06;100.00;98817.31;5074861;28;20233;-75
2021/11/10 11:06:31;;;;;;;10.63;8.20;;;;;;;5.94;100.00;98816.41;5074822;28;20206;-74
2021/11/10 11:09:00;;;;;;;11.07;8.07;;;;;;;5.98;100.00;98818.81;5083850;28;20298;-74
2021/11/10 11:11:39;;;;;;;9.77;8.63;;;;;;;6.01;100.00;98814.19;5088340;28;20580;-73
2021/11/10 11:14:15;;;;;;;9.47;8.47;;;;;;;6.20;100.00;98816.28;5078651;28;20205;-75
2021/11/10 11:16:53;;;;;;;9.80;8.90;;;;;;;6.13;100.00;98814.22;5077853;28;20292;-76
2021/11/10 11:19:21;;;;;;;9.13;8.27;;;;;;;6.12;100.00;98815.16;5081208;28;20732;-72
2021/11/10 11:21:54;;;;;;;9.97;8.57;;;;;;;6.39;100.00;98806.16;5078083;28;20245;-74
2021/11/10 11:24:33;;;;;;;9.33;8.43;;;;;;;6.21;100.00;98803.94;5051056;28;20293;-73
2021/11/10 11:27:18;;;;;;;9.13;8.17;;;;;;;6.30;100.00;98805.91;5084947;28;20213;-74
2021/11/10 11:29:47;;;;;;;9.73;8.83;;;;;;;6.42;100.00;98806.72;5071564;28;20893;-74
2021/11/10 11:32:20;;;;;;;9.17;8.27;;;;;;;6.44;100.00;98802.22;5088762;28;20696;-73